Salina, KS (67401)

4:12 AM CST on February 01, 2015 (GMT -0600)
APRSWXNET Salina KS US | Change Station
CLOSE
Current Station
Personal Weather Station
Location: Mentor, KS
Elevation: 1240 ft
Nearby Weather Stations
Active Advisory: Wind Advisory

Elev 1240 ft 38.81 °N, 97.62 °W | Updated 38 minutes ago

Snow
Snow
34 °F
Feels Like 34 °F
N
3
Wind Variable Wind from NW
Gusts 10.0 mph

Today
High -- | Low -- °F
--% Chance of Precip.
Yesterday
High -- | Low -- °F
Precip. -- in
7:36 AM 5:51 PM
Waxing Gibbous, 94% visible
Pressure 29.79 in
Visibility 3.0 miles
Clouds Overcast 600 ft
Windchill 34 °F
Dew Point 32 °F
Humidity 93%
Rainfall 0.10 in
Snow Depth Not available.
UV 0 out of 12
Pollen .10 out of 12
Air Quality Not available.
Flu Activity Not available.
METAR KSLN 010953Z 32018KT 3SM -SN BR OVC006 01/00 A2977 RMK AO2 PK WND 32028/0913 RAE20SNB20 SLP087 P0003 T00110000

More Conditions Fewer Conditions

Pressure 29.79 in
Visibility 3.0 miles
Clouds Overcast 600 ft
Windchill 34 °F
Dew Point 32 °F
Humidity 93%
Rainfall 0.10 in
Snow Depth Not available.
UV 0 out of 12
Pollen .10 out of 12
Air Quality Not available.
Flu Activity Not available.
METAR KSLN 010953Z 32018KT 3SM -SN BR OVC006 01/00 A2977 RMK AO2 PK WND 32028/0913 RAE20SNB20 SLP087 P0003 T00110000

More Conditions Fewer Conditions

10-Day Weather Forecast

Almanac

Astronomy

Feb. 01, 2015 Rise Set
Actual Time
Civil Twilight
Nautical Twilight
Astronomical Twilight
Moon
Length of Visible Light
Length of Day
Tomorrow will be .
, % of the Moon is Illuminated

Today's Extremes

State Highs State Lows

Community

WunderPhotos

Upload Photos

1,792,330 photos uploaded!

WunderBlogs® & News

Nearby

Air Quality

  Air Quality AQ Index Pollutant
Not available.

Snow Depth

Station Depth Elevation

Earthquake Activity

City Distance Mag. Time & Date
Minimum magnitude displayed is 2.5.

Coastal Water Temperatures

Place Temperature

Nearby Weather Stations